ADDS TAF Board (Experimental) INFO

IDs: Format: Expanded Condensed

Updated at: 1337 UTC 20 Dec 2014

KPHX - Phoenix/Sky Harbor, AZ, US

Issued at 1120 UTC 20 Dec 2014
Time1251Z20/14Z20/15Z20/16Z20/17Z20/18Z20/19Z20/20Z20/21Z20/22Z20/23Z21/00Z21/01Z21/02Z
TypeOBSPRVLPRVLPRVLPRVLPRVLPRVLPRVLPRVLPRVLPRVLPRVLPRVLPRVL
VIS10>6>6>6>6>6>6>6>6>6>6>6>6>6
CIG200200200200200200200200200200200200200200
CoverBKNBKNBKNBKNBKNBKNBKNBKNBKNOVCOVCOVCOVCOVC
FltCat--VFRVFRVFRVFRVFRVFRVFRVFRVFRVFRVFRVFRVFR
WX----------------------------
WDir1109090909090909090290290290290290
WSpd44444444455555
WGst----------------------------
R07/25
XWnd-10000000022222
HWnd444444444-5-5-5-5-5
R08/26
XWnd-10000000022222
HWnd444444444-5-5-5-5-5
Raw TAF
KPHX 201120Z 2012/2112 09004KT P6SM BKN200
  FM202200 29005KT P6SM OVC200
  FM210300 VRB04KT P6SM OVC200
  FM210700 10004KT P6SM BKN250


Raw METAR
KPHX 201251Z 11004KT 10SM BKN200 08/04 A3009 RMK AO2 SLP185 T00830044

TAF Board Legend

Hazard VFR MVFR IFR LIFR
Visibility (sm) >5 3≤X≤5 1≤X<3 <1
Ceiling (100 ft) >30 10≤X≤30 5≤X<10 <5
Wind Speed (kt) <10 10≤X<20 20≤X<30 ≥30
Wind Gust (kt) <15 15≤X<25 25≤X<35 ≥35
Weather No Wx Reported VCTS,-TS,-FZRA TS,FZRA +TS,+FZRA


Page loaded:  13:37 UTC  |   05:37 AM Pacific  |   06:37 AM Mountain  |   07:37 AM Central  |   08:37 AM Eastern

 

ADVISORIES

FORECASTS

FORECASTS

OBSERVATIONS

USER TOOLS

ABOUT US